Terminal Aerodrome Forecast
Issued by NWS

Home | Current Version | Previous Version | Text Only | Print | Product List | Glossary On
Versions: 1 2 3 4 5 6 7 8 9 10 11 12 13
000
FTUS42 TJSJ 252300
TAFJMZ
TAF
TJMZ 252322Z 2600/2624 17005KT P6SM FEW040
     FM261530 25007KT P6SM SCT025 SCT040
     FM261750 27009KT P6SM VCSH SCT025 BKN040
     FM262300 VRB05KT P6SM SCT025 SCT040
      AMD NOT SKED TIL 261600=

USA.gov is the U.S. government's official web portal to all federal, state and local government web resources and services.